sensor_id;sensor_type;location;lat;lon;timestamp;P1;durP1;ratioP1;P2;durP2;ratioP2
18875;SDS011;9570;50.854;13.778;2023-08-01T00:02:07;5.03;;;2.97;;
18875;SDS011;9570;50.854;13.778;2023-08-01T00:04:33;4.73;;;2.60;;
18875;SDS011;9570;50.854;13.778;2023-08-01T00:06:58;4.53;;;2.73;;
18875;SDS011;9570;50.854;13.778;2023-08-01T00:09:24;5.47;;;2.80;;
18875;SDS011;9570;50.854;13.778;2023-08-01T00:11:49;4.63;;;2.80;;
18875;SDS011;9570;50.854;13.778;2023-08-01T00:14:14;5.03;;;2.90;;
18875;SDS011;9570;50.854;13.778;2023-08-01T00:16:40;9.73;;;2.70;;
18875;SDS011;9570;50.854;13.778;2023-08-01T00:19:06;4.10;;;2.50;;
18875;SDS011;9570;50.854;13.778;2023-08-01T00:21:31;5.20;;;2.80;;
18875;SDS011;9570;50.854;13.778;2023-08-01T00:23:57;6.07;;;3.30;;
18875;SDS011;9570;50.854;13.778;2023-08-01T00:26:22;3.90;;;2.50;;
18875;SDS011;9570;50.854;13.778;2023-08-01T00:28:48;5.87;;;2.53;;
18875;SDS011;9570;50.854;13.778;2023-08-01T00:31:14;4.73;;;2.47;;
18875;SDS011;9570;50.854;13.778;2023-08-01T00:33:39;3.63;;;2.37;;
18875;SDS011;9570;50.854;13.778;2023-08-01T00:36:05;5.40;;;2.70;;
18875;SDS011;9570;50.854;13.778;2023-08-01T00:38:36;4.53;;;2.70;;
18875;SDS011;9570;50.854;13.778;2023-08-01T00:41:02;4.97;;;2.50;;
18875;SDS011;9570;50.854;13.778;2023-08-01T00:43:27;2.50;;;2.30;;
18875;SDS011;9570;50.854;13.778;2023-08-01T00:45:53;4.30;;;2.40;;
18875;SDS011;9570;50.854;13.778;2023-08-01T00:48:24;4.27;;;2.80;;
18875;SDS011;9570;50.854;13.778;2023-08-01T00:50:50;4.93;;;3.00;;
18875;SDS011;9570;50.854;13.778;2023-08-01T00:53:16;3.70;;;2.53;;
18875;SDS011;9570;50.854;13.778;2023-08-01T00:55:43;3.37;;;2.37;;
18875;SDS011;9570;50.854;13.778;2023-08-01T00:58:08;3.33;;;2.63;;
18875;SDS011;9570;50.854;13.778;2023-08-01T01:00:34;4.50;;;2.60;;
18875;SDS011;9570;50.854;13.778;2023-08-01T01:03:00;4.27;;;2.87;;
18875;SDS011;9570;50.854;13.778;2023-08-01T01:05:25;4.47;;;2.70;;
18875;SDS011;9570;50.854;13.778;2023-08-01T01:07:54;4.43;;;2.60;;
18875;SDS011;9570;50.854;13.778;2023-08-01T01:10:20;4.33;;;3.17;;
18875;SDS011;9570;50.854;13.778;2023-08-01T01:12:46;4.97;;;3.00;;
18875;SDS011;9570;50.854;13.778;2023-08-01T01:15:12;4.67;;;2.83;;
18875;SDS011;9570;50.854;13.778;2023-08-01T01:17:37;4.87;;;2.70;;
18875;SDS011;9570;50.854;13.778;2023-08-01T01:20:03;4.90;;;2.77;;
18875;SDS011;9570;50.854;13.778;2023-08-01T01:22:29;5.10;;;3.07;;
18875;SDS011;9570;50.854;13.778;2023-08-01T01:24:55;4.43;;;2.97;;
18875;SDS011;9570;50.854;13.778;2023-08-01T01:27:22;5.20;;;3.00;;
18875;SDS011;9570;50.854;13.778;2023-08-01T01:29:48;5.20;;;2.73;;
18875;SDS011;9570;50.854;13.778;2023-08-01T01:32:15;8.10;;;3.00;;
18875;SDS011;9570;50.854;13.778;2023-08-01T01:34:41;5.07;;;2.80;;
18875;SDS011;9570;50.854;13.778;2023-08-01T01:37:06;4.07;;;3.17;;
18875;SDS011;9570;50.854;13.778;2023-08-01T01:39:32;4.30;;;3.00;;
18875;SDS011;9570;50.854;13.778;2023-08-01T01:41:57;5.13;;;3.37;;
18875;SDS011;9570;50.854;13.778;2023-08-01T01:44:23;4.63;;;3.27;;
18875;SDS011;9570;50.854;13.778;2023-08-01T01:46:48;4.47;;;3.03;;
18875;SDS011;9570;50.854;13.778;2023-08-01T01:49:14;4.77;;;3.20;;
18875;SDS011;9570;50.854;13.778;2023-08-01T01:51:39;6.73;;;3.30;;
18875;SDS011;9570;50.854;13.778;2023-08-01T01:54:05;6.97;;;3.50;;
18875;SDS011;9570;50.854;13.778;2023-08-01T01:56:31;7.03;;;3.60;;
18875;SDS011;9570;50.854;13.778;2023-08-01T01:58:56;5.50;;;3.20;;
18875;SDS011;9570;50.854;13.778;2023-08-01T02:01:22;4.17;;;3.00;;
18875;SDS011;9570;50.854;13.778;2023-08-01T02:03:47;4.23;;;3.13;;
18875;SDS011;9570;50.854;13.778;2023-08-01T02:06:13;4.27;;;3.20;;
18875;SDS011;9570;50.854;13.778;2023-08-01T02:08:38;5.07;;;3.10;;
18875;SDS011;9570;50.854;13.778;2023-08-01T02:11:03;4.60;;;3.17;;
18875;SDS011;9570;50.854;13.778;2023-08-01T02:13:30;4.47;;;3.07;;
18875;SDS011;9570;50.854;13.778;2023-08-01T02:15:57;5.30;;;3.17;;
18875;SDS011;9570;50.854;13.778;2023-08-01T02:18:22;5.57;;;3.20;;
18875;SDS011;9570;50.854;13.778;2023-08-01T02:20:48;5.90;;;2.80;;
18875;SDS011;9570;50.854;13.778;2023-08-01T02:23:13;4.30;;;2.67;;
18875;SDS011;9570;50.854;13.778;2023-08-01T02:25:39;4.13;;;3.00;;
18875;SDS011;9570;50.854;13.778;2023-08-01T02:28:05;4.07;;;3.30;;
18875;SDS011;9570;50.854;13.778;2023-08-01T02:30:31;3.97;;;3.07;;
18875;SDS011;9570;50.854;13.778;2023-08-01T02:32:57;4.93;;;2.93;;
18875;SDS011;9570;50.854;13.778;2023-08-01T02:35:23;3.63;;;2.90;;
18875;SDS011;9570;50.854;13.778;2023-08-01T02:37:48;4.57;;;3.10;;
18875;SDS011;9570;50.854;13.778;2023-08-01T02:40:14;4.93;;;2.80;;
18875;SDS011;9570;50.854;13.778;2023-08-01T02:42:39;5.43;;;3.43;;
18875;SDS011;9570;50.854;13.778;2023-08-01T02:45:05;5.60;;;3.00;;
18875;SDS011;9570;50.854;13.778;2023-08-01T02:47:31;4.03;;;3.20;;
18875;SDS011;9570;50.854;13.778;2023-08-01T02:49:56;4.23;;;2.87;;
18875;SDS011;9570;50.854;13.778;2023-08-01T02:52:22;6.17;;;3.10;;
18875;SDS011;9570;50.854;13.778;2023-08-01T02:54:47;5.63;;;3.23;;
18875;SDS011;9570;50.854;13.778;2023-08-01T02:57:13;5.20;;;3.17;;
18875;SDS011;9570;50.854;13.778;2023-08-01T02:59:38;4.33;;;2.83;;
18875;SDS011;9570;50.854;13.778;2023-08-01T03:02:03;6.60;;;3.30;;
18875;SDS011;9570;50.854;13.778;2023-08-01T03:04:29;3.93;;;3.13;;
18875;SDS011;9570;50.854;13.778;2023-08-01T03:06:54;4.33;;;3.10;;
18875;SDS011;9570;50.854;13.778;2023-08-01T03:09:20;5.00;;;3.27;;
18875;SDS011;9570;50.854;13.778;2023-08-01T03:11:45;3.63;;;2.90;;
18875;SDS011;9570;50.854;13.778;2023-08-01T03:14:11;3.40;;;2.80;;
18875;SDS011;9570;50.854;13.778;2023-08-01T03:16:36;5.00;;;2.97;;
18875;SDS011;9570;50.854;13.778;2023-08-01T03:19:02;6.03;;;2.80;;
18875;SDS011;9570;50.854;13.778;2023-08-01T03:21:31;3.47;;;2.90;;
18875;SDS011;9570;50.854;13.778;2023-08-01T03:24:00;3.63;;;2.70;;
18875;SDS011;9570;50.854;13.778;2023-08-01T03:26:26;3.13;;;2.40;;
18875;SDS011;9570;50.854;13.778;2023-08-01T03:28:55;4.23;;;2.37;;
18875;SDS011;9570;50.854;13.778;2023-08-01T03:31:21;6.37;;;3.20;;
18875;SDS011;9570;50.854;13.778;2023-08-01T03:33:47;3.07;;;2.33;;
18875;SDS011;9570;50.854;13.778;2023-08-01T03:36:13;3.23;;;2.60;;
18875;SDS011;9570;50.854;13.778;2023-08-01T03:38:39;3.30;;;2.27;;
18875;SDS011;9570;50.854;13.778;2023-08-01T03:41:05;4.70;;;2.10;;
18875;SDS011;9570;50.854;13.778;2023-08-01T03:43:30;2.47;;;2.27;;
18875;SDS011;9570;50.854;13.778;2023-08-01T03:45:56;2.40;;;2.20;;
18875;SDS011;9570;50.854;13.778;2023-08-01T03:48:21;2.70;;;2.20;;
18875;SDS011;9570;50.854;13.778;2023-08-01T03:50:47;2.50;;;2.10;;
18875;SDS011;9570;50.854;13.778;2023-08-01T03:53:12;4.30;;;2.40;;
18875;SDS011;9570;50.854;13.778;2023-08-01T03:55:38;2.47;;;2.20;;
18875;SDS011;9570;50.854;13.778;2023-08-01T03:58:03;2.70;;;2.23;;
18875;SDS011;9570;50.854;13.778;2023-08-01T04:00:29;5.70;;;2.57;;
18875;SDS011;9570;50.854;13.778;2023-08-01T04:02:57;2.40;;;2.20;;
18875;SDS011;9570;50.854;13.778;2023-08-01T04:05:23;3.90;;;2.30;;
18875;SDS011;9570;50.854;13.778;2023-08-01T04:07:49;3.27;;;2.50;;
18875;SDS011;9570;50.854;13.778;2023-08-01T04:10:14;4.13;;;3.00;;
18875;SDS011;9570;50.854;13.778;2023-08-01T04:12:40;3.77;;;2.77;;
18875;SDS011;9570;50.854;13.778;2023-08-01T04:15:07;2.63;;;2.37;;
18875;SDS011;9570;50.854;13.778;2023-08-01T04:17:33;2.93;;;2.63;;
18875;SDS011;9570;50.854;13.778;2023-08-01T04:19:59;2.53;;;2.33;;
18875;SDS011;9570;50.854;13.778;2023-08-01T04:22:24;3.63;;;2.90;;
18875;SDS011;9570;50.854;13.778;2023-08-01T04:24:50;4.13;;;2.80;;
18875;SDS011;9570;50.854;13.778;2023-08-01T04:27:15;3.60;;;3.03;;
18875;SDS011;9570;50.854;13.778;2023-08-01T04:29:41;3.93;;;3.23;;
18875;SDS011;9570;50.854;13.778;2023-08-01T04:32:07;3.47;;;3.17;;
18875;SDS011;9570;50.854;13.778;2023-08-01T04:34:32;4.43;;;4.03;;
18875;SDS011;9570;50.854;13.778;2023-08-01T04:36:58;4.30;;;3.90;;
18875;SDS011;9570;50.854;13.778;2023-08-01T04:39:24;3.93;;;3.63;;
18875;SDS011;9570;50.854;13.778;2023-08-01T04:41:49;4.83;;;4.10;;
18875;SDS011;9570;50.854;13.778;2023-08-01T04:44:15;4.50;;;4.10;;
18875;SDS011;9570;50.854;13.778;2023-08-01T04:46:41;5.13;;;4.10;;
18875;SDS011;9570;50.854;13.778;2023-08-01T04:49:06;4.77;;;4.07;;
18875;SDS011;9570;50.854;13.778;2023-08-01T04:51:32;4.73;;;3.53;;
18875;SDS011;9570;50.854;13.778;2023-08-01T04:53:57;3.80;;;3.20;;
18875;SDS011;9570;50.854;13.778;2023-08-01T04:56:23;3.07;;;2.77;;
18875;SDS011;9570;50.854;13.778;2023-08-01T04:58:48;4.13;;;3.50;;
18875;SDS011;9570;50.854;13.778;2023-08-01T05:01:14;2.90;;;2.70;;
18875;SDS011;9570;50.854;13.778;2023-08-01T05:03:39;2.93;;;2.70;;
18875;SDS011;9570;50.854;13.778;2023-08-01T05:06:05;2.70;;;2.50;;
18875;SDS011;9570;50.854;13.778;2023-08-01T05:08:30;2.60;;;2.40;;
18875;SDS011;9570;50.854;13.778;2023-08-01T05:10:56;2.83;;;2.50;;
18875;SDS011;9570;50.854;13.778;2023-08-01T05:13:21;2.57;;;2.37;;
18875;SDS011;9570;50.854;13.778;2023-08-01T05:15:47;2.10;;;1.97;;
18875;SDS011;9570;50.854;13.778;2023-08-01T05:18:13;2.40;;;2.20;;
18875;SDS011;9570;50.854;13.778;2023-08-01T05:20:40;2.20;;;2.00;;
18875;SDS011;9570;50.854;13.778;2023-08-01T05:23:05;2.20;;;2.00;;
18875;SDS011;9570;50.854;13.778;2023-08-01T05:25:31;2.27;;;2.07;;
18875;SDS011;9570;50.854;13.778;2023-08-01T05:27:56;2.50;;;2.30;;
18875;SDS011;9570;50.854;13.778;2023-08-01T05:30:22;2.47;;;2.27;;
18875;SDS011;9570;50.854;13.778;2023-08-01T05:32:47;2.40;;;2.20;;
18875;SDS011;9570;50.854;13.778;2023-08-01T05:35:13;2.57;;;2.37;;
18875;SDS011;9570;50.854;13.778;2023-08-01T05:37:38;2.60;;;2.40;;
18875;SDS011;9570;50.854;13.778;2023-08-01T05:40:04;3.60;;;2.60;;
18875;SDS011;9570;50.854;13.778;2023-08-01T05:42:30;2.30;;;2.10;;
18875;SDS011;9570;50.854;13.778;2023-08-01T05:44:55;2.97;;;2.73;;
18875;SDS011;9570;50.854;13.778;2023-08-01T05:47:21;2.50;;;2.30;;
18875;SDS011;9570;50.854;13.778;2023-08-01T05:49:47;3.03;;;2.73;;
18875;SDS011;9570;50.854;13.778;2023-08-01T05:52:13;2.80;;;2.60;;
18875;SDS011;9570;50.854;13.778;2023-08-01T05:54:39;2.87;;;2.67;;
18875;SDS011;9570;50.854;13.778;2023-08-01T05:57:04;3.10;;;2.80;;
18875;SDS011;9570;50.854;13.778;2023-08-01T05:59:30;2.97;;;2.63;;
18875;SDS011;9570;50.854;13.778;2023-08-01T06:01:56;3.50;;;2.97;;
18875;SDS011;9570;50.854;13.778;2023-08-01T06:04:21;2.93;;;2.63;;
18875;SDS011;9570;50.854;13.778;2023-08-01T06:06:47;2.60;;;2.40;;
18875;SDS011;9570;50.854;13.778;2023-08-01T06:09:13;2.60;;;2.40;;
18875;SDS011;9570;50.854;13.778;2023-08-01T06:11:38;2.50;;;2.30;;
18875;SDS011;9570;50.854;13.778;2023-08-01T06:14:04;2.60;;;2.40;;
18875;SDS011;9570;50.854;13.778;2023-08-01T06:16:29;2.70;;;2.50;;
18875;SDS011;9570;50.854;13.778;2023-08-01T06:18:55;2.20;;;2.00;;
18875;SDS011;9570;50.854;13.778;2023-08-01T06:21:21;2.27;;;2.00;;
18875;SDS011;9570;50.854;13.778;2023-08-01T06:23:46;2.50;;;2.30;;
18875;SDS011;9570;50.854;13.778;2023-08-01T06:26:12;2.17;;;1.97;;
18875;SDS011;9570;50.854;13.778;2023-08-01T06:28:37;1.97;;;1.87;;
18875;SDS011;9570;50.854;13.778;2023-08-01T06:31:03;2.20;;;2.00;;
18875;SDS011;9570;50.854;13.778;2023-08-01T06:33:28;2.50;;;2.10;;
18875;SDS011;9570;50.854;13.778;2023-08-01T06:35:54;2.20;;;2.00;;
18875;SDS011;9570;50.854;13.778;2023-08-01T06:38:19;3.27;;;2.07;;
18875;SDS011;9570;50.854;13.778;2023-08-01T06:40:45;3.67;;;2.43;;
18875;SDS011;9570;50.854;13.778;2023-08-01T06:43:10;2.27;;;2.07;;
18875;SDS011;9570;50.854;13.778;2023-08-01T06:45:35;2.57;;;2.37;;
18875;SDS011;9570;50.854;13.778;2023-08-01T06:48:01;2.50;;;2.30;;
18875;SDS011;9570;50.854;13.778;2023-08-01T06:50:27;2.43;;;2.20;;
18875;SDS011;9570;50.854;13.778;2023-08-01T06:52:52;2.33;;;2.13;;
18875;SDS011;9570;50.854;13.778;2023-08-01T06:55:18;2.30;;;2.10;;
18875;SDS011;9570;50.854;13.778;2023-08-01T06:57:43;2.40;;;2.20;;
18875;SDS011;9570;50.854;13.778;2023-08-01T07:00:09;2.37;;;2.17;;
18875;SDS011;9570;50.854;13.778;2023-08-01T07:02:36;2.33;;;2.07;;
18875;SDS011;9570;50.854;13.778;2023-08-01T07:05:01;2.60;;;2.27;;
18875;SDS011;9570;50.854;13.778;2023-08-01T07:07:27;2.50;;;2.23;;
18875;SDS011;9570;50.854;13.778;2023-08-01T07:09:52;2.47;;;2.27;;
18875;SDS011;9570;50.854;13.778;2023-08-01T07:12:18;3.27;;;2.27;;
18875;SDS011;9570;50.854;13.778;2023-08-01T07:14:43;2.20;;;2.00;;
18875;SDS011;9570;50.854;13.778;2023-08-01T07:17:09;2.77;;;2.10;;
18875;SDS011;9570;50.854;13.778;2023-08-01T07:19:34;2.43;;;2.23;;
18875;SDS011;9570;50.854;13.778;2023-08-01T07:22:00;2.70;;;1.80;;
18875;SDS011;9570;50.854;13.778;2023-08-01T07:24:25;2.87;;;2.20;;
18875;SDS011;9570;50.854;13.778;2023-08-01T07:26:51;1.90;;;1.80;;
18875;SDS011;9570;50.854;13.778;2023-08-01T07:29:16;2.10;;;1.90;;
18875;SDS011;9570;50.854;13.778;2023-08-01T07:31:42;4.47;;;1.90;;
18875;SDS011;9570;50.854;13.778;2023-08-01T07:34:08;2.30;;;1.80;;
18875;SDS011;9570;50.854;13.778;2023-08-01T07:36:33;2.40;;;2.20;;
18875;SDS011;9570;50.854;13.778;2023-08-01T07:38:59;2.20;;;1.80;;
18875;SDS011;9570;50.854;13.778;2023-08-01T07:41:24;2.20;;;1.70;;
18875;SDS011;9570;50.854;13.778;2023-08-01T07:43:50;1.93;;;1.67;;
18875;SDS011;9570;50.854;13.778;2023-08-01T07:46:15;1.70;;;1.57;;
18875;SDS011;9570;50.854;13.778;2023-08-01T07:48:41;2.10;;;1.70;;
18875;SDS011;9570;50.854;13.778;2023-08-01T07:51:06;1.50;;;1.40;;
18875;SDS011;9570;50.854;13.778;2023-08-01T07:53:33;1.70;;;1.60;;
18875;SDS011;9570;50.854;13.778;2023-08-01T07:55:59;2.00;;;1.40;;
18875;SDS011;9570;50.854;13.778;2023-08-01T07:58:27;2.90;;;1.70;;
18875;SDS011;9570;50.854;13.778;2023-08-01T08:00:52;1.80;;;1.43;;
18875;SDS011;9570;50.854;13.778;2023-08-01T08:03:18;2.13;;;1.20;;
18875;SDS011;9570;50.854;13.778;2023-08-01T08:05:44;1.53;;;1.10;;
18875;SDS011;9570;50.854;13.778;2023-08-01T08:08:09;2.17;;;1.50;;
18875;SDS011;9570;50.854;13.778;2023-08-01T08:10:35;2.20;;;1.33;;
18875;SDS011;9570;50.854;13.778;2023-08-01T08:13:00;1.30;;;1.20;;
18875;SDS011;9570;50.854;13.778;2023-08-01T08:15:26;1.57;;;1.10;;
18875;SDS011;9570;50.854;13.778;2023-08-01T08:17:52;1.20;;;1.10;;
18875;SDS011;9570;50.854;13.778;2023-08-01T08:20:17;1.20;;;1.10;;
18875;SDS011;9570;50.854;13.778;2023-08-01T08:22:43;2.10;;;1.20;;
18875;SDS011;9570;50.854;13.778;2023-08-01T08:25:08;1.00;;;0.90;;
18875;SDS011;9570;50.854;13.778;2023-08-01T08:27:34;1.20;;;1.10;;
18875;SDS011;9570;50.854;13.778;2023-08-01T08:29:59;1.23;;;1.10;;
18875;SDS011;9570;50.854;13.778;2023-08-01T08:32:25;1.10;;;1.00;;
18875;SDS011;9570;50.854;13.778;2023-08-01T08:34:50;1.00;;;0.90;;
18875;SDS011;9570;50.854;13.778;2023-08-01T08:37:16;1.53;;;1.00;;
18875;SDS011;9570;50.854;13.778;2023-08-01T08:39:41;0.97;;;0.90;;
18875;SDS011;9570;50.854;13.778;2023-08-01T08:42:08;1.17;;;1.07;;
18875;SDS011;9570;50.854;13.778;2023-08-01T08:44:39;1.40;;;0.93;;
18875;SDS011;9570;50.854;13.778;2023-08-01T08:47:08;1.17;;;1.07;;
18875;SDS011;9570;50.854;13.778;2023-08-01T08:49:36;1.83;;;0.93;;
18875;SDS011;9570;50.854;13.778;2023-08-01T08:52:02;1.80;;;0.80;;
18875;SDS011;9570;50.854;13.778;2023-08-01T08:54:28;1.20;;;1.10;;
18875;SDS011;9570;50.854;13.778;2023-08-01T08:56:55;1.60;;;1.00;;
18875;SDS011;9570;50.854;13.778;2023-08-01T08:59:21;1.33;;;1.23;;
18875;SDS011;9570;50.854;13.778;2023-08-01T09:01:47;1.13;;;1.03;;
18875;SDS011;9570;50.854;13.778;2023-08-01T09:04:13;1.03;;;1.00;;
18875;SDS011;9570;50.854;13.778;2023-08-01T09:06:44;1.10;;;1.00;;
18875;SDS011;9570;50.854;13.778;2023-08-01T09:09:15;1.00;;;0.90;;
18875;SDS011;9570;50.854;13.778;2023-08-01T09:11:41;1.20;;;1.10;;
18875;SDS011;9570;50.854;13.778;2023-08-01T09:14:11;1.40;;;0.90;;
18875;SDS011;9570;50.854;13.778;2023-08-01T09:16:37;1.80;;;0.87;;
18875;SDS011;9570;50.854;13.778;2023-08-01T09:19:05;1.17;;;0.97;;
18875;SDS011;9570;50.854;13.778;2023-08-01T09:21:31;0.70;;;0.70;;
18875;SDS011;9570;50.854;13.778;2023-08-01T09:24:09;0.90;;;0.90;;
18875;SDS011;9570;50.854;13.778;2023-08-01T09:26:36;1.00;;;0.83;;
18875;SDS011;9570;50.854;13.778;2023-08-01T09:29:02;2.17;;;1.00;;
18875;SDS011;9570;50.854;13.778;2023-08-01T09:31:28;1.10;;;1.00;;
18875;SDS011;9570;50.854;13.778;2023-08-01T09:33:55;1.20;;;0.80;;
18875;SDS011;9570;50.854;13.778;2023-08-01T09:36:22;0.70;;;0.70;;
18875;SDS011;9570;50.854;13.778;2023-08-01T09:38:48;0.70;;;0.70;;
18875;SDS011;9570;50.854;13.778;2023-08-01T09:41:17;0.63;;;0.63;;
18875;SDS011;9570;50.854;13.778;2023-08-01T09:43:44;0.97;;;0.87;;
18875;SDS011;9570;50.854;13.778;2023-08-01T09:46:11;0.97;;;0.70;;
18875;SDS011;9570;50.854;13.778;2023-08-01T09:48:37;0.70;;;0.70;;
18875;SDS011;9570;50.854;13.778;2023-08-01T09:51:10;0.60;;;0.60;;
18875;SDS011;9570;50.854;13.778;2023-08-01T09:53:46;0.57;;;0.57;;
18875;SDS011;9570;50.854;13.778;2023-08-01T09:56:18;0.83;;;0.80;;
18875;SDS011;9570;50.854;13.778;2023-08-01T09:58:48;0.50;;;0.50;;
18875;SDS011;9570;50.854;13.778;2023-08-01T10:01:15;0.60;;;0.57;;
18875;SDS011;9570;50.854;13.778;2023-08-01T10:03:48;1.20;;;0.60;;
18875;SDS011;9570;50.854;13.778;2023-08-01T10:06:19;0.70;;;0.70;;
18875;SDS011;9570;50.854;13.778;2023-08-01T10:08:46;0.60;;;0.60;;
18875;SDS011;9570;50.854;13.778;2023-08-01T10:11:20;0.57;;;0.57;;
18875;SDS011;9570;50.854;13.778;2023-08-01T10:13:47;0.83;;;0.77;;
18875;SDS011;9570;50.854;13.778;2023-08-01T10:16:13;0.60;;;0.60;;
18875;SDS011;9570;50.854;13.778;2023-08-01T10:18:39;1.23;;;0.90;;
18875;SDS011;9570;50.854;13.778;2023-08-01T10:21:06;1.17;;;0.70;;
18875;SDS011;9570;50.854;13.778;2023-08-01T10:23:33;0.57;;;0.57;;
18875;SDS011;9570;50.854;13.778;2023-08-01T10:26:00;1.83;;;0.80;;
18875;SDS011;9570;50.854;13.778;2023-08-01T10:28:30;0.70;;;0.70;;
18875;SDS011;9570;50.854;13.778;2023-08-01T10:31:13;0.67;;;0.67;;
18875;SDS011;9570;50.854;13.778;2023-08-01T10:33:43;0.70;;;0.70;;
18875;SDS011;9570;50.854;13.778;2023-08-01T10:36:16;1.27;;;0.77;;
18875;SDS011;9570;50.854;13.778;2023-08-01T10:38:47;0.70;;;0.70;;
18875;SDS011;9570;50.854;13.778;2023-08-01T10:41:41;1.00;;;0.80;;
18875;SDS011;9570;50.854;13.778;2023-08-01T10:44:09;0.87;;;0.70;;
18875;SDS011;9570;50.854;13.778;2023-08-01T10:49:32;1.17;;;0.80;;
18875;SDS011;9570;50.854;13.778;2023-08-01T10:52:21;1.60;;;0.70;;
18875;SDS011;9570;50.854;13.778;2023-08-01T10:54:58;1.83;;;0.77;;
18875;SDS011;9570;50.854;13.778;2023-08-01T10:57:28;1.20;;;0.80;;
18875;SDS011;9570;50.854;13.778;2023-08-01T10:59:56;0.70;;;0.70;;
18875;SDS011;9570;50.854;13.778;2023-08-01T11:02:23;0.70;;;0.70;;
18875;SDS011;9570;50.854;13.778;2023-08-01T11:04:54;0.80;;;0.80;;
18875;SDS011;9570;50.854;13.778;2023-08-01T11:07:21;0.77;;;0.70;;
18875;SDS011;9570;50.854;13.778;2023-08-01T11:09:47;0.80;;;0.80;;
18875;SDS011;9570;50.854;13.778;2023-08-01T11:12:12;0.60;;;0.60;;
18875;SDS011;9570;50.854;13.778;2023-08-01T11:14:38;1.10;;;1.00;;
18875;SDS011;9570;50.854;13.778;2023-08-01T11:17:03;0.73;;;0.70;;
18875;SDS011;9570;50.854;13.778;2023-08-01T11:19:29;0.80;;;0.70;;
18875;SDS011;9570;50.854;13.778;2023-08-01T11:21:55;0.73;;;0.70;;
18875;SDS011;9570;50.854;13.778;2023-08-01T11:24:22;0.90;;;0.80;;
18875;SDS011;9570;50.854;13.778;2023-08-01T11:26:49;0.83;;;0.70;;
18875;SDS011;9570;50.854;13.778;2023-08-01T11:29:15;1.70;;;0.70;;
18875;SDS011;9570;50.854;13.778;2023-08-01T11:31:51;0.80;;;0.70;;
18875;SDS011;9570;50.854;13.778;2023-08-01T11:34:20;0.60;;;0.60;;
18875;SDS011;9570;50.854;13.778;2023-08-01T11:36:46;1.67;;;0.70;;
18875;SDS011;9570;50.854;13.778;2023-08-01T11:39:12;0.60;;;0.60;;
18875;SDS011;9570;50.854;13.778;2023-08-01T11:41:39;0.90;;;0.83;;
18875;SDS011;9570;50.854;13.778;2023-08-01T11:44:04;0.83;;;0.50;;
18875;SDS011;9570;50.854;13.778;2023-08-01T11:46:31;0.70;;;0.70;;
18875;SDS011;9570;50.854;13.778;2023-08-01T11:48:58;2.33;;;0.80;;
18875;SDS011;9570;50.854;13.778;2023-08-01T11:51:25;1.10;;;0.80;;
18875;SDS011;9570;50.854;13.778;2023-08-01T11:53:58;1.97;;;1.00;;
18875;SDS011;9570;50.854;13.778;2023-08-01T11:56:25;2.47;;;1.10;;
18875;SDS011;9570;50.854;13.778;2023-08-01T11:58:50;1.73;;;1.20;;
18875;SDS011;9570;50.854;13.778;2023-08-01T12:01:16;1.40;;;1.10;;
18875;SDS011;9570;50.854;13.778;2023-08-01T12:03:42;1.23;;;1.13;;
18875;SDS011;9570;50.854;13.778;2023-08-01T12:06:08;1.37;;;1.10;;
18875;SDS011;9570;50.854;13.778;2023-08-01T12:08:34;1.27;;;1.17;;
18875;SDS011;9570;50.854;13.778;2023-08-01T12:11:00;1.80;;;1.27;;
18875;SDS011;9570;50.854;13.778;2023-08-01T12:13:26;1.43;;;1.20;;
18875;SDS011;9570;50.854;13.778;2023-08-01T12:15:52;3.93;;;1.20;;
18875;SDS011;9570;50.854;13.778;2023-08-01T12:18:28;1.23;;;1.10;;
18875;SDS011;9570;50.854;13.778;2023-08-01T12:20:54;2.37;;;1.13;;
18875;SDS011;9570;50.854;13.778;2023-08-01T12:23:20;1.60;;;1.30;;
18875;SDS011;9570;50.854;13.778;2023-08-01T12:25:47;1.40;;;1.20;;
18875;SDS011;9570;50.854;13.778;2023-08-01T12:28:13;2.10;;;1.30;;
18875;SDS011;9570;50.854;13.778;2023-08-01T12:30:39;2.10;;;1.10;;
18875;SDS011;9570;50.854;13.778;2023-08-01T12:33:06;1.10;;;1.00;;
18875;SDS011;9570;50.854;13.778;2023-08-01T12:35:32;1.20;;;1.10;;
18875;SDS011;9570;50.854;13.778;2023-08-01T12:37:58;2.73;;;1.10;;
18875;SDS011;9570;50.854;13.778;2023-08-01T12:40:23;3.97;;;1.23;;
18875;SDS011;9570;50.854;13.778;2023-08-01T12:42:49;2.07;;;1.00;;
18875;SDS011;9570;50.854;13.778;2023-08-01T12:45:14;1.50;;;1.20;;
18875;SDS011;9570;50.854;13.778;2023-08-01T12:47:40;1.30;;;1.20;;
18875;SDS011;9570;50.854;13.778;2023-08-01T12:50:05;1.70;;;1.10;;
18875;SDS011;9570;50.854;13.778;2023-08-01T12:52:31;2.20;;;1.20;;
18875;SDS011;9570;50.854;13.778;2023-08-01T12:54:57;1.40;;;1.30;;
18875;SDS011;9570;50.854;13.778;2023-08-01T12:57:22;1.30;;;1.20;;
18875;SDS011;9570;50.854;13.778;2023-08-01T12:59:48;1.47;;;1.37;;
18875;SDS011;9570;50.854;13.778;2023-08-01T13:02:14;2.23;;;1.40;;
18875;SDS011;9570;50.854;13.778;2023-08-01T13:04:39;1.93;;;1.70;;
18875;SDS011;9570;50.854;13.778;2023-08-01T13:07:05;2.53;;;1.33;;
18875;SDS011;9570;50.854;13.778;2023-08-01T13:09:30;1.33;;;1.23;;
18875;SDS011;9570;50.854;13.778;2023-08-01T13:11:56;1.80;;;1.20;;
18875;SDS011;9570;50.854;13.778;2023-08-01T13:14:22;1.87;;;1.50;;
18875;SDS011;9570;50.854;13.778;2023-08-01T13:16:49;2.57;;;1.43;;
18875;SDS011;9570;50.854;13.778;2023-08-01T13:19:15;1.70;;;1.37;;
18875;SDS011;9570;50.854;13.778;2023-08-01T13:21:40;1.40;;;1.30;;
18875;SDS011;9570;50.854;13.778;2023-08-01T13:24:06;2.93;;;1.40;;
18875;SDS011;9570;50.854;13.778;2023-08-01T13:26:31;2.13;;;1.63;;
18875;SDS011;9570;50.854;13.778;2023-08-01T13:28:57;1.60;;;1.50;;
18875;SDS011;9570;50.854;13.778;2023-08-01T13:31:23;1.57;;;1.47;;
18875;SDS011;9570;50.854;13.778;2023-08-01T13:33:49;1.60;;;1.50;;
18875;SDS011;9570;50.854;13.778;2023-08-01T13:36:14;2.20;;;1.73;;
18875;SDS011;9570;50.854;13.778;2023-08-01T13:38:42;1.90;;;1.70;;
18875;SDS011;9570;50.854;13.778;2023-08-01T13:41:07;2.27;;;1.80;;
18875;SDS011;9570;50.854;13.778;2023-08-01T13:43:33;2.70;;;1.80;;
18875;SDS011;9570;50.854;13.778;2023-08-01T13:45:58;2.90;;;1.60;;
18875;SDS011;9570;50.854;13.778;2023-08-01T13:48:23;2.07;;;1.80;;
18875;SDS011;9570;50.854;13.778;2023-08-01T13:50:49;3.63;;;2.00;;
18875;SDS011;9570;50.854;13.778;2023-08-01T13:53:15;3.63;;;1.80;;
18875;SDS011;9570;50.854;13.778;2023-08-01T13:55:41;3.57;;;1.90;;
18875;SDS011;9570;50.854;13.778;2023-08-01T13:58:06;2.33;;;2.07;;
18875;SDS011;9570;50.854;13.778;2023-08-01T14:00:32;2.43;;;1.80;;
18875;SDS011;9570;50.854;13.778;2023-08-01T14:02:57;2.97;;;2.07;;
18875;SDS011;9570;50.854;13.778;2023-08-01T14:05:24;3.73;;;1.83;;
18875;SDS011;9570;50.854;13.778;2023-08-01T14:07:51;5.03;;;2.33;;
18875;SDS011;9570;50.854;13.778;2023-08-01T14:10:17;2.87;;;2.63;;
18875;SDS011;9570;50.854;13.778;2023-08-01T14:12:43;3.77;;;2.53;;
18875;SDS011;9570;50.854;13.778;2023-08-01T14:15:09;3.37;;;2.27;;
18875;SDS011;9570;50.854;13.778;2023-08-01T14:17:34;2.20;;;2.00;;
18875;SDS011;9570;50.854;13.778;2023-08-01T14:20:00;3.20;;;2.43;;
18875;SDS011;9570;50.854;13.778;2023-08-01T14:22:29;3.87;;;2.80;;
18875;SDS011;9570;50.854;13.778;2023-08-01T14:24:54;3.83;;;2.73;;
18875;SDS011;9570;50.854;13.778;2023-08-01T14:27:20;3.53;;;3.10;;
18875;SDS011;9570;50.854;13.778;2023-08-01T14:29:45;3.20;;;2.70;;
18875;SDS011;9570;50.854;13.778;2023-08-01T14:32:11;3.23;;;2.80;;
18875;SDS011;9570;50.854;13.778;2023-08-01T14:34:36;3.73;;;3.20;;
18875;SDS011;9570;50.854;13.778;2023-08-01T14:37:03;3.07;;;2.80;;
18875;SDS011;9570;50.854;13.778;2023-08-01T14:39:28;3.43;;;2.77;;
18875;SDS011;9570;50.854;13.778;2023-08-01T14:41:54;3.43;;;2.70;;
18875;SDS011;9570;50.854;13.778;2023-08-01T14:44:20;2.80;;;2.60;;
18875;SDS011;9570;50.854;13.778;2023-08-01T14:46:46;3.57;;;3.00;;